createdAt,value
2019-04-11T08:15:25.831Z,17384
2019-04-11T08:16:28.930Z,15812
2019-04-11T08:17:37.501Z,16404
2019-04-11T08:18:47.390Z,16840
2019-04-11T08:19:53.217Z,16684
2019-04-11T08:20:58.468Z,16316
2019-04-11T08:22:00.904Z,16040
2019-04-11T08:23:05.573Z,15832
2019-04-11T08:24:10.714Z,15712
2019-04-11T08:25:15.292Z,15444
2019-04-11T08:26:18.673Z,15092
2019-04-11T08:27:23.232Z,14904
2019-04-11T08:28:28.943Z,14944
2019-04-11T08:29:35.994Z,15344
2019-04-11T08:30:40.525Z,15868
2019-04-11T08:31:44.724Z,16456
2019-04-11T08:32:47.919Z,16996
2019-04-11T08:33:51.310Z,17428
2019-04-11T08:34:55.244Z,18560
2019-04-11T08:35:58.305Z,20032
2019-04-11T08:37:03.230Z,21952
2019-04-11T08:38:07.834Z,24576
2019-04-11T08:39:14.282Z,24928
2019-04-11T08:40:19.836Z,26336
2019-04-11T08:41:25.353Z,28320
2019-04-11T08:42:29.611Z,29600
2019-04-11T08:43:33.475Z,31904
2019-04-11T08:44:38.277Z,33376
2019-04-11T08:45:42.882Z,37536
2019-04-11T08:46:47.389Z,39808
2019-04-11T08:47:54.257Z,34912
2019-04-11T08:49:03.683Z,32416
2019-04-11T08:50:08.719Z,31040
2019-04-11T08:51:14.566Z,30880
2019-04-11T08:52:21.026Z,30752
2019-04-11T08:53:26.819Z,31040
2019-04-11T08:54:31.384Z,31328
2019-04-11T08:55:45.344Z,31904
2019-04-11T08:57:07.966Z,33120
2019-04-11T08:58:14.076Z,33856
2019-04-11T08:59:18.585Z,33504
2019-04-11T09:00:24.234Z,34304
2019-04-11T09:01:27.770Z,36224
2019-04-11T09:02:31.201Z,40576
2019-04-11T09:03:34.654Z,47424
2019-04-11T09:04:38.374Z,54272
2019-04-11T09:05:44.349Z,48384
2019-04-11T09:06:47.147Z,51808
2019-04-11T09:07:50.448Z,44832
2019-04-11T09:08:56.259Z,40576
2019-04-11T09:09:59.990Z,34784
2019-04-11T09:11:04.879Z,32320
2019-04-11T09:12:10.113Z,29504
2019-04-11T09:13:13.392Z,28224
2019-04-11T09:14:16.745Z,31200
2019-04-11T09:15:19.382Z,39008
2019-04-11T09:16:23.672Z,54432
2019-04-11T09:17:28.121Z,43232
2019-04-11T09:18:32.329Z,36576
2019-04-11T09:19:35.805Z,50048
2019-04-11T09:20:38.228Z,36576
2019-04-11T09:21:42.467Z,33152
2019-04-11T09:22:47.014Z,37824
2019-04-11T09:23:50.230Z,31904
2019-04-11T09:24:53.767Z,52032
2019-04-11T09:25:57.906Z,47520
2019-04-11T09:27:04.532Z,71168
2019-04-11T09:28:07.814Z,67744
2019-04-11T09:29:13.374Z,45696
2019-04-11T09:30:17.434Z,38848
2019-04-11T09:31:22.192Z,32832
2019-04-11T09:32:25.168Z,32160
2019-04-11T09:33:30.941Z,30656
2019-04-11T09:34:35.563Z,28672
2019-04-11T09:35:39.475Z,27552
2019-04-11T09:36:42.956Z,27488
2019-04-11T09:37:46.363Z,27456
2019-04-11T09:38:48.732Z,25440
2019-04-11T09:39:53.679Z,24576
2019-04-11T09:40:58.621Z,23456
2019-04-11T09:42:03.009Z,22624
2019-04-11T09:43:07.158Z,24192
2019-04-11T09:44:10.761Z,22496
2019-04-11T09:45:14.313Z,22464
2019-04-11T09:46:16.725Z,21024
2019-04-11T09:47:19.985Z,21120
2019-04-11T09:48:24.779Z,22144
2019-04-11T09:49:29.055Z,22752
2019-04-11T09:50:32.319Z,23168
2019-04-11T09:51:35.976Z,23424
2019-04-11T09:52:39.398Z,24096
2019-04-11T09:53:43.267Z,24864
2019-04-11T09:54:46.465Z,24832
2019-04-11T09:55:50.035Z,23904
2019-04-11T09:56:52.135Z,22496
2019-04-11T09:57:58.465Z,21376
2019-04-11T09:59:06.719Z,20384
2019-04-11T10:00:10.238Z,19968
2019-04-11T10:01:16.074Z,20032
2019-04-11T10:02:21.093Z,19840
2019-04-11T10:03:25.593Z,19552
2019-04-11T10:04:29.781Z,18816
2019-04-11T10:05:34.150Z,18304
2019-04-11T10:06:36.968Z,17984
2019-04-11T10:07:41.982Z,17952
2019-04-11T10:08:45.520Z,18144
2019-04-11T10:09:50.455Z,18368
2019-04-11T10:10:57.835Z,18176
2019-04-11T10:12:02.902Z,17512
2019-04-11T10:13:08.820Z,16800
2019-04-11T10:14:13.348Z,15944
2019-04-11T10:15:16.907Z,15392
2019-04-11T10:16:20.301Z,14884
2019-04-11T10:17:26.782Z,14256
2019-04-11T10:18:32.627Z,13948
2019-04-11T10:19:46.480Z,13788
2019-04-11T10:20:50.848Z,13412
2019-04-11T10:21:56.428Z,12496
2019-04-11T10:23:01.495Z,11684
2019-04-11T10:24:07.314Z,11140
2019-04-11T10:25:10.851Z,10508
2019-04-11T10:26:14.187Z,9992
2019-04-11T10:27:18.893Z,9472
2019-04-11T10:28:24.964Z,8996
2019-04-11T10:29:30.344Z,8492
2019-04-11T10:30:37.715Z,7888
2019-04-11T10:31:42.780Z,7396
2019-04-11T10:32:47.598Z,6992
2019-04-11T10:33:50.994Z,6588
2019-04-11T10:34:54.235Z,6156
2019-04-11T10:35:56.723Z,5876
2019-04-11T10:37:01.263Z,5856
2019-04-11T10:38:06.691Z,5952
2019-04-11T10:39:11.051Z,5868
2019-04-11T10:40:15.561Z,5620
2019-04-11T10:41:22.984Z,5348
2019-04-11T10:42:26.759Z,5152
2019-04-11T10:43:32.376Z,4960
2019-04-11T10:44:35.924Z,4932
2019-04-11T10:45:41.400Z,4936
2019-04-11T10:46:45.874Z,4900
2019-04-11T10:47:51.254Z,4828
2019-04-11T10:48:56.996Z,4716
2019-04-11T10:49:59.202Z,4524
2019-04-11T10:51:04.555Z,4100
2019-04-11T10:52:08.207Z,3932
2019-04-11T10:53:13.498Z,4144
2019-04-11T10:54:20.473Z,4904
2019-04-11T10:55:25.329Z,5712
2019-04-11T10:56:30.553Z,6556
2019-04-11T10:57:34.150Z,7212
2019-04-11T10:58:37.651Z,7604
2019-04-11T10:59:40.746Z,7808
2019-04-11T11:00:45.219Z,7964
2019-04-11T11:01:48.901Z,8088
2019-04-11T11:02:53.666Z,8156
2019-04-11T11:03:57.314Z,8192
2019-04-11T11:05:03.092Z,8388
2019-04-11T11:06:08.429Z,8688
2019-04-11T11:07:11.453Z,9000
2019-04-11T11:08:15.393Z,9336
2019-04-11T11:09:19.776Z,9640
2019-04-11T11:10:23.669Z,9832
2019-04-11T11:11:28.253Z,10064
2019-04-11T11:12:32.851Z,10428
2019-04-11T11:13:36.628Z,10884
2019-04-11T11:14:43.630Z,11624
2019-04-11T11:15:49.699Z,12480
2019-04-11T11:16:53.119Z,13148
2019-04-11T11:18:23.705Z,13628
2019-04-11T11:21:33.391Z,14420
2019-04-11T11:22:41.559Z,14340
2019-04-11T11:23:49.179Z,14136
2019-04-11T11:24:55.752Z,13816
2019-04-11T11:25:59.104Z,13532
2019-04-11T11:27:05.428Z,13120
2019-04-11T11:28:11.637Z,12752
2019-04-11T11:29:17.435Z,12508
2019-04-11T11:30:23.075Z,12376
2019-04-11T11:31:27.751Z,12092
2019-04-11T11:32:31.592Z,11752
2019-04-11T11:33:35.142Z,11472
2019-04-11T11:34:39.408Z,11256
2019-04-11T11:35:43.066Z,10996
2019-04-11T11:36:47.966Z,10752
2019-04-11T11:37:57.650Z,10432
2019-04-11T11:39:03.195Z,9936
2019-04-11T11:40:11.785Z,9612
2019-04-11T11:41:21.157Z,9392
2019-04-11T11:42:26.137Z,9180
2019-04-11T11:43:30.772Z,8892
2019-04-11T11:44:37.090Z,8548
2019-04-11T11:45:41.542Z,8316
2019-04-11T11:47:01.570Z,8096
2019-04-11T11:48:13.952Z,7872
2019-04-11T11:49:40.436Z,7524
2019-04-11T11:51:23.675Z,7348
2019-04-11T11:52:36.039Z,7448
2019-04-11T11:53:40.604Z,7532
2019-04-11T11:54:44.161Z,7576
2019-04-11T11:55:47.437Z,7620
2019-04-11T11:56:50.794Z,7596
2019-04-11T11:57:53.152Z,7656
2019-04-11T11:58:58.093Z,7836
2019-04-11T12:00:04.998Z,8040
2019-04-11T12:01:09.643Z,8100
2019-04-11T12:02:17.195Z,8164
2019-04-11T12:03:26.793Z,8344
2019-04-11T12:04:36.332Z,8592
2019-04-11T12:05:46.847Z,8892
2019-04-11T12:07:00.618Z,9204
2019-04-11T12:08:13.370Z,9408
2019-04-11T12:09:22.398Z,9756
2019-04-11T12:10:26.142Z,10340
2019-04-11T12:11:30.304Z,10936
2019-04-11T12:12:33.681Z,11508
2019-04-11T12:13:39.276Z,12004
2019-04-11T12:14:45.271Z,12572
2019-04-11T12:15:51.152Z,13160
2019-04-11T12:16:59.891Z,13488
2019-04-11T12:18:11.171Z,13708
2019-04-11T12:19:22.756Z,13816
2019-04-11T12:20:27.042Z,13872
2019-04-11T12:21:31.378Z,14000
2019-04-11T12:22:34.777Z,14244
2019-04-11T12:23:47.124Z,14568
2019-04-11T12:25:12.533Z,14644
2019-04-11T12:26:16.744Z,14480
2019-04-11T12:27:23.103Z,14328
2019-04-11T12:28:27.753Z,14312
2019-04-11T12:29:32.179Z,14448
2019-04-11T12:30:36.046Z,14472
2019-04-11T12:31:41.761Z,14588
2019-04-11T12:32:46.420Z,14776
2019-04-11T12:33:50.053Z,14804
2019-04-11T12:34:53.566Z,14744
2019-04-11T12:35:58.735Z,14560
2019-04-11T12:37:02.420Z,14424
2019-04-11T12:38:07.058Z,14164
2019-04-11T12:39:09.108Z,13916
2019-04-11T12:40:11.144Z,13576
2019-04-11T12:41:13.241Z,13276
2019-04-11T12:42:15.291Z,12944
2019-04-11T12:43:17.347Z,12648
2019-04-11T12:44:19.649Z,12392
2019-04-11T12:45:21.687Z,12280
2019-04-11T12:46:29.695Z,12164
2019-04-11T12:47:32.163Z,12184
2019-04-11T12:48:34.220Z,12168
2019-04-11T12:49:36.280Z,12164
2019-04-11T12:50:38.351Z,12076
2019-04-11T12:51:40.384Z,11752
2019-04-11T12:52:42.428Z,11480
2019-04-11T12:53:44.487Z,11280
2019-04-11T12:54:46.526Z,11072
2019-04-11T12:55:48.575Z,10968
2019-04-11T12:56:50.996Z,10812
2019-04-11T12:57:53.044Z,10736
2019-04-11T12:58:55.083Z,10804
2019-04-11T12:59:57.423Z,11084
2019-04-11T13:00:59.497Z,11356
2019-04-11T13:02:01.530Z,11604
2019-04-11T13:03:03.851Z,11648
2019-04-11T13:04:06.172Z,11492
2019-04-11T13:05:08.194Z,11324
2019-04-11T13:06:10.241Z,11148
2019-04-11T13:07:12.299Z,10968
2019-04-11T13:08:14.452Z,10780
2019-04-11T13:09:16.556Z,10588
2019-04-11T13:10:18.614Z,10416
2019-04-11T13:11:20.658Z,10256
2019-04-11T13:12:22.701Z,10064
2019-04-11T13:13:24.741Z,9848
2019-04-11T13:14:26.771Z,9560
2019-04-11T13:15:28.810Z,9288
2019-04-11T13:16:30.866Z,9036
2019-04-11T13:17:33.188Z,8836
2019-04-11T13:18:35.227Z,8644
2019-04-11T13:19:37.279Z,8472
2019-04-11T13:20:39.302Z,8328
2019-04-11T13:21:41.348Z,8188
2019-04-11T13:22:43.423Z,8060
2019-04-11T13:23:46.040Z,7992
2019-04-11T13:24:48.065Z,7848
2019-04-11T13:25:50.433Z,7744
2019-04-11T13:26:52.464Z,7700
2019-04-11T13:27:54.511Z,7700
2019-04-11T13:28:56.553Z,7704
2019-04-11T13:29:58.571Z,7752
2019-04-11T13:31:00.656Z,7856
2019-04-11T13:32:02.689Z,7868
2019-04-11T13:33:05.010Z,7744
2019-04-11T13:34:07.421Z,7536
2019-04-11T13:35:12.455Z,7380
2019-04-11T13:36:14.531Z,7596
2019-04-11T13:37:16.962Z,7896
2019-04-11T13:38:18.977Z,8400
2019-04-11T13:39:21.098Z,9008
2019-04-11T13:40:23.130Z,9412
2019-04-11T13:41:25.159Z,9556
2019-04-11T13:42:27.187Z,9396
2019-04-11T13:43:29.224Z,9020
2019-04-11T13:44:31.545Z,8568
2019-04-11T13:45:33.978Z,8184
2019-04-11T13:46:36.294Z,8004
2019-04-11T13:47:38.375Z,7960
2019-04-11T13:48:41.967Z,7856
2019-04-11T13:49:46.703Z,7692
2019-04-11T13:50:49.109Z,7592
2019-04-11T13:51:51.149Z,7588
2019-04-11T13:52:53.196Z,7652
2019-04-11T13:53:55.265Z,7696
2019-04-11T13:54:57.359Z,7756
2019-04-11T13:55:59.392Z,7848
2019-04-11T13:57:01.426Z,7960
2019-04-11T13:58:04.129Z,8096
2019-04-11T13:59:06.175Z,8176
2019-04-11T14:00:08.206Z,8200
2019-04-11T14:01:10.240Z,8232
2019-04-11T14:02:12.662Z,8268
2019-04-11T14:03:14.751Z,8300
2019-04-11T14:04:16.804Z,8320
2019-04-11T14:05:18.839Z,8428
2019-04-11T14:06:21.205Z,8636
2019-04-11T14:07:24.202Z,8884
2019-04-11T14:08:26.275Z,9104
2019-04-11T14:09:30.465Z,9336
2019-04-11T14:10:33.272Z,9604
2019-04-11T14:11:35.329Z,9764
2019-04-11T14:12:37.353Z,9968
2019-04-11T14:13:39.390Z,10260
2019-04-11T14:14:41.417Z,10460
2019-04-11T14:15:43.465Z,10696
2019-04-11T14:16:45.506Z,10876
2019-04-11T14:17:47.541Z,11108
2019-04-11T14:18:49.602Z,11264
2019-04-11T14:19:51.658Z,11308
2019-04-11T14:20:53.689Z,11252
2019-04-11T14:21:56.289Z,10932
2019-04-11T14:22:58.735Z,10580
2019-04-11T14:24:00.760Z,10664
2019-04-11T14:25:03.377Z,10900
2019-04-11T14:26:05.692Z,11164
2019-04-11T14:27:08.006Z,11140
2019-04-11T14:28:10.440Z,11128
2019-04-11T14:29:12.469Z,11204
2019-04-11T14:30:16.292Z,11248
2019-04-11T14:31:22.126Z,11184
2019-04-11T14:32:25.069Z,10824
2019-04-11T14:33:27.309Z,10548
2019-04-11T14:34:29.490Z,10196
2019-04-11T14:35:31.570Z,9972
2019-04-11T14:36:34.057Z,9932
2019-04-11T14:37:38.328Z,9812
2019-04-11T14:38:46.641Z,9168
2019-04-11T14:39:54.067Z,8248
2019-04-11T14:41:01.377Z,7916
2019-04-11T14:42:05.118Z,8128
2019-04-11T14:43:07.876Z,8100
2019-04-11T14:44:10.285Z,7300
2019-04-11T14:45:16.706Z,6556
2019-04-11T14:46:19.084Z,5312
2019-04-11T14:47:21.123Z,3924
2019-04-11T14:48:23.172Z,3004
2019-04-11T14:49:27.109Z,2356
2019-04-11T14:50:40.238Z,1692
2019-04-11T14:51:47.183Z,1364
2019-04-11T14:52:49.230Z,1376
2019-04-11T14:53:51.841Z,1416
2019-04-11T14:54:53.919Z,1480
2019-04-11T14:55:55.953Z,1572
2019-04-11T14:56:57.976Z,1836
2019-04-11T14:58:00.030Z,2152
2019-04-11T14:59:02.081Z,2304
2019-04-11T15:00:04.109Z,2244
2019-04-11T15:01:06.547Z,2356
2019-04-11T15:02:08.839Z,2536
2019-04-11T15:03:11.167Z,2664
2019-04-11T15:04:13.994Z,2636
2019-04-11T15:05:16.108Z,2600
2019-04-11T15:06:18.133Z,2576
2019-04-11T15:07:20.461Z,2568
2019-04-11T15:08:22.885Z,2568
2019-04-11T15:09:24.908Z,2524
2019-04-11T15:10:26.977Z,2532
2019-04-11T15:11:29.011Z,2536
2019-04-11T15:12:31.036Z,2556
2019-04-11T15:13:33.367Z,2504
2019-04-11T15:14:35.419Z,2508
2019-04-11T15:15:38.420Z,2476
2019-04-11T15:16:40.451Z,2452
2019-04-11T15:17:42.777Z,2460
2019-04-11T15:18:44.797Z,2456
2019-04-11T15:19:47.120Z,2460
2019-04-11T15:20:55.098Z,2468
2019-04-11T15:21:57.993Z,2464
2019-04-11T15:23:00.033Z,2464
2019-04-11T15:24:02.072Z,2492
2019-04-11T15:25:05.700Z,2552
2019-04-11T15:26:10.483Z,2656
2019-04-11T15:27:12.816Z,2776
2019-04-11T15:28:14.849Z,2916
2019-04-11T15:29:16.883Z,3020
2019-04-11T15:30:19.242Z,3120
2019-04-11T15:31:21.580Z,3192
2019-04-11T15:32:26.620Z,3252
2019-04-11T15:33:29.678Z,3244
2019-04-11T15:34:32.501Z,3212
2019-04-11T15:35:35.213Z,3236
2019-04-11T15:36:39.828Z,3312
2019-04-11T15:37:41.988Z,3416
2019-04-11T15:38:44.104Z,3508
2019-04-11T15:39:46.126Z,3548
2019-04-11T15:40:48.163Z,3592
2019-04-11T15:41:53.009Z,3704
2019-04-11T15:43:04.751Z,3840
2019-04-11T15:44:06.835Z,3896
2019-04-11T15:45:08.918Z,4008
2019-04-11T15:46:16.987Z,4108
2019-04-11T15:47:19.696Z,4152
2019-04-11T15:48:23.690Z,4108
2019-04-11T15:49:30.172Z,4008
2019-04-11T15:50:33.789Z,3920
2019-04-11T15:51:35.826Z,3804
2019-04-11T15:52:37.839Z,3516
2019-04-11T15:53:39.895Z,3492
2019-04-11T15:54:41.933Z,3672
2019-04-11T15:55:43.964Z,3648
2019-04-11T15:56:46.013Z,3556
2019-04-11T15:57:48.091Z,3428
2019-04-11T15:58:50.139Z,3316
2019-04-11T15:59:54.244Z,3236
2019-04-11T16:00:56.424Z,3120
2019-04-11T16:02:00.923Z,3048
2019-04-11T16:03:03.431Z,2928
2019-04-11T16:04:05.639Z,2900
2019-04-11T16:05:08.048Z,2932
2019-04-11T16:06:10.087Z,2732
2019-04-11T16:07:12.160Z,2332
2019-04-11T16:08:14.477Z,2076
2019-04-11T16:09:16.529Z,1884
2019-04-11T16:10:18.874Z,1788
2019-04-11T16:11:20.976Z,1800
2019-04-11T16:12:23.029Z,1844
2019-04-11T16:13:25.075Z,1852
2019-04-11T16:14:27.109Z,1836
2019-04-11T16:15:30.978Z,1876
2019-04-11T16:16:33.630Z,1928
2019-04-11T16:17:36.076Z,2008
2019-04-11T16:18:38.442Z,2048
2019-04-11T16:19:40.500Z,2048
2019-04-11T16:20:42.561Z,2036
2019-04-11T16:21:54.621Z,2016
2019-04-11T16:22:57.227Z,2052
2019-04-11T16:23:59.262Z,2136
2019-04-11T16:25:01.289Z,2224
2019-04-11T16:26:03.350Z,2196
2019-04-11T16:27:05.374Z,2152
2019-04-11T16:28:08.079Z,2136
2019-04-11T16:29:10.247Z,2084
2019-04-11T16:30:12.581Z,1964
2019-04-11T16:31:15.003Z,1868
2019-04-11T16:32:17.055Z,1808
2019-04-11T16:33:19.088Z,1760
2019-04-11T16:34:21.421Z,1620
2019-04-11T16:35:23.732Z,1492
2019-04-11T16:36:28.456Z,1412
2019-04-11T16:37:30.476Z,1372
2019-04-11T16:38:32.519Z,1300
2019-04-11T16:39:35.957Z,1248
2019-04-11T16:40:37.999Z,1260
2019-04-11T16:41:40.038Z,1284
2019-04-11T16:42:42.063Z,1308
2019-04-11T16:43:44.099Z,1308
2019-04-11T16:44:46.370Z,1256
2019-04-11T16:45:48.443Z,1204
2019-04-11T16:46:54.661Z,1204
2019-04-11T16:47:57.630Z,1252
2019-04-11T16:48:59.696Z,1300
2019-04-11T16:50:01.768Z,1332
2019-04-11T16:51:05.777Z,1336
2019-04-11T16:52:08.542Z,1308
2019-04-11T16:53:11.584Z,1308
2019-04-11T16:54:13.735Z,1320
2019-04-11T16:55:15.753Z,1308
2019-04-11T16:56:17.824Z,1244
2019-04-11T16:57:19.874Z,1168
2019-04-11T16:58:21.949Z,1120
2019-04-11T16:59:24.000Z,1072
2019-04-11T17:00:26.583Z,1040
2019-04-11T17:01:28.900Z,1008
2019-04-11T17:02:30.959Z,980
2019-04-11T17:03:33.041Z,956
2019-04-11T17:04:35.076Z,940
2019-04-11T17:05:37.203Z,928
2019-04-11T17:06:39.637Z,900
2019-04-11T17:07:41.674Z,872
2019-04-11T17:08:43.730Z,836
2019-04-11T17:09:45.770Z,808
2019-04-11T17:10:47.796Z,784
2019-04-11T17:11:50.142Z,768
2019-04-11T17:12:53.789Z,744
2019-04-11T17:13:58.568Z,712
2019-04-11T17:15:01.652Z,660
2019-04-11T17:16:04.112Z,660
2019-04-11T17:17:14.708Z,636
2019-04-11T17:18:18.921Z,584
2019-04-11T17:19:21.066Z,556
2019-04-11T17:20:23.092Z,520
2019-04-11T17:21:25.129Z,476
2019-04-11T17:22:28.383Z,464
2019-04-11T17:23:30.533Z,468
2019-04-11T17:24:32.588Z,472
2019-04-11T17:25:34.670Z,456
2019-04-11T17:26:36.741Z,432
2019-04-11T17:27:38.791Z,408
2019-04-11T17:28:43.319Z,384
2019-04-11T17:29:45.970Z,364
2019-04-11T17:30:48.008Z,356
2019-04-11T17:31:50.041Z,360
2019-04-11T17:32:55.306Z,360
2019-04-11T17:34:01.373Z,368
2019-04-11T17:35:07.278Z,356
2019-04-11T17:36:09.299Z,324
2019-04-11T17:37:11.625Z,300
2019-04-11T17:38:13.657Z,284
2019-04-11T17:39:15.683Z,284
2019-04-11T17:40:17.720Z,288
2019-04-11T17:41:19.747Z,284
2019-04-11T17:42:21.777Z,268
2019-04-11T17:43:23.824Z,260
2019-04-11T17:44:25.862Z,244
2019-04-11T17:45:27.886Z,224
2019-04-11T17:46:29.920Z,216
2019-04-11T17:47:31.958Z,204
2019-04-11T17:48:33.980Z,200
2019-04-11T17:49:36.313Z,184
2019-04-11T17:50:38.393Z,172
2019-04-11T17:51:42.592Z,168
2019-04-11T17:52:58.028Z,156
2019-04-11T17:54:01.448Z,148
2019-04-11T17:55:03.562Z,140
2019-04-11T17:56:05.602Z,128
2019-04-11T17:57:07.640Z,120
2019-04-11T17:58:09.661Z,116
2019-04-11T17:59:12.197Z,108
2019-04-11T18:00:14.580Z,104
2019-04-11T18:01:16.613Z,96
2019-04-11T18:02:18.639Z,88
2019-04-11T18:03:20.674Z,88
2019-04-11T18:04:22.792Z,80
2019-04-11T18:05:24.838Z,76
2019-04-11T18:06:26.856Z,68
2019-04-11T18:07:28.897Z,60
2019-04-11T18:08:30.962Z,52
2019-04-11T18:09:33.370Z,48
2019-04-11T18:10:35.410Z,44
2019-04-11T18:11:37.728Z,40
2019-04-11T18:12:39.821Z,40
2019-04-11T18:13:42.131Z,36
2019-04-11T18:14:44.155Z,32
2019-04-11T18:15:46.453Z,28
2019-04-11T18:16:48.488Z,28
2019-04-11T18:17:50.579Z,24
2019-04-11T18:18:52.880Z,24
2019-04-11T18:19:55.308Z,20
2019-04-11T18:20:57.338Z,16
2019-04-11T18:22:07.609Z,16
2019-04-11T18:23:19.598Z,12
2019-04-11T18:24:22.235Z,12
2019-04-11T18:25:24.276Z,12
2019-04-11T18:26:26.295Z,8
2019-04-11T18:27:28.355Z,8
2019-04-11T18:28:30.378Z,8
2019-04-11T18:29:32.408Z,4
2019-04-11T18:30:34.452Z,4
2019-04-11T18:31:36.480Z,4
2019-04-11T18:32:38.529Z,4
2019-04-11T18:33:40.563Z,4
2019-04-11T18:34:42.602Z,0
2019-04-11T18:35:44.629Z,0
2019-04-11T18:36:46.994Z,4
2019-04-11T18:37:49.411Z,4
2019-04-11T18:38:51.442Z,0
2019-04-11T18:39:53.503Z,0
2019-04-11T18:40:55.538Z,0
2019-04-11T18:41:57.737Z,0
2019-04-11T18:43:00.190Z,0
2019-04-11T18:44:02.517Z,0
2019-04-11T18:45:04.853Z,0
2019-04-11T18:46:07.172Z,0
2019-04-11T18:47:09.887Z,0
2019-04-11T18:48:11.928Z,0
2019-04-11T18:49:13.967Z,0
2019-04-11T18:50:16.005Z,0
2019-04-11T18:51:20.854Z,0
2019-04-11T18:52:28.773Z,0
2019-04-11T18:53:31.073Z,0
2019-04-11T18:54:33.113Z,0
2019-04-11T18:55:35.138Z,0
2019-04-11T18:56:38.130Z,0
2019-04-11T18:57:40.347Z,0
2019-04-11T18:58:42.664Z,0
2019-04-11T18:59:44.683Z,0
2019-04-11T19:00:46.730Z,0
2019-04-11T19:01:49.036Z,0
2019-04-11T19:02:51.456Z,0
2019-04-11T19:03:53.492Z,0
2019-04-11T19:04:55.512Z,0
2019-04-11T19:05:57.575Z,0
2019-04-11T19:06:59.619Z,0
2019-04-11T19:08:01.934Z,0
2019-04-11T19:09:04.235Z,0
2019-04-11T19:10:06.303Z,0
2019-04-11T19:11:08.625Z,0
2019-04-11T19:12:10.648Z,0
2019-04-11T19:13:17.619Z,0
2019-04-11T19:14:19.946Z,0
2019-04-11T19:15:21.988Z,0
2019-04-11T19:16:24.040Z,0
2019-04-11T19:17:26.070Z,0
2019-04-11T19:18:31.255Z,0
2019-04-11T19:19:33.290Z,0
2019-04-11T19:20:35.321Z,0
2019-04-11T19:21:37.354Z,0
2019-04-11T19:22:39.385Z,0
2019-04-11T19:23:41.413Z,0
2019-04-11T19:24:43.450Z,0
2019-04-11T19:25:45.494Z,0
2019-04-11T19:26:47.530Z,0
2019-04-11T19:27:52.167Z,0
2019-04-11T19:29:00.265Z,0
2019-04-11T19:30:02.549Z,0
2019-04-11T19:31:04.694Z,0
2019-04-11T19:32:06.724Z,0
2019-04-11T19:33:08.751Z,0
2019-04-11T19:34:10.796Z,0
2019-04-11T19:35:12.822Z,0
2019-04-11T19:36:14.857Z,0
2019-04-11T19:37:16.918Z,0
2019-04-11T19:38:18.954Z,0
2019-04-11T19:39:23.129Z,0
2019-04-11T19:40:25.326Z,0
2019-04-11T19:41:27.390Z,0
2019-04-11T19:42:29.986Z,0
2019-04-11T19:43:32.020Z,0
2019-04-11T19:44:35.182Z,0
2019-04-11T19:45:37.280Z,0
2019-04-11T19:46:40.867Z,0
2019-04-11T19:47:43.355Z,0
2019-04-11T19:48:45.773Z,0
2019-04-11T19:49:47.806Z,0
2019-04-11T19:50:49.835Z,0
2019-04-11T19:51:52.242Z,0
2019-04-11T19:52:54.277Z,0
2019-04-11T19:53:56.303Z,0
2019-04-11T19:54:58.905Z,0
2019-04-11T19:56:02.888Z,0
2019-04-11T19:57:08.195Z,0
2019-04-11T19:58:10.495Z,0
2019-04-11T19:59:12.915Z,0
2019-04-11T20:00:15.327Z,0
2019-04-11T20:01:17.359Z,0
2019-04-11T20:02:24.476Z,0
2019-04-11T20:03:26.493Z,0
2019-04-11T20:04:28.542Z,0
2019-04-11T20:05:30.573Z,0
2019-04-11T20:06:32.618Z,0
2019-04-11T20:07:34.639Z,0
2019-04-11T20:08:37.076Z,0
2019-04-11T20:09:39.123Z,0
2019-04-11T20:10:41.423Z,0
2019-04-11T20:11:44.827Z,0
2019-04-11T20:12:47.311Z,0
2019-04-11T20:13:49.366Z,0
2019-04-11T20:14:51.392Z,0
2019-04-11T20:15:53.495Z,0
2019-04-11T20:16:55.517Z,0
2019-04-11T20:17:57.548Z,0
2019-04-11T20:19:00.790Z,0
2019-04-11T20:20:06.655Z,0
2019-04-11T20:21:09.855Z,0
2019-04-11T20:22:12.507Z,0
2019-04-11T20:23:15.238Z,0
2019-04-11T20:24:17.334Z,0
2019-04-11T20:25:19.377Z,0
2019-04-11T20:26:21.416Z,0
2019-04-11T20:27:23.846Z,0
2019-04-11T20:28:26.813Z,0
2019-04-11T20:29:29.002Z,0
2019-04-11T20:30:31.053Z,0
2019-04-11T20:31:33.095Z,0
2019-04-11T20:32:35.111Z,0
2019-04-11T20:33:37.425Z,0
2019-04-11T20:34:39.452Z,0
2019-04-11T20:35:41.888Z,0
2019-04-11T20:36:43.906Z,0
2019-04-11T20:37:46.226Z,0
2019-04-11T20:38:48.290Z,0
2019-04-11T20:39:51.452Z,0
2019-04-11T20:40:53.472Z,0
2019-04-11T20:41:55.509Z,0
2019-04-11T20:42:57.570Z,0
2019-04-11T20:43:59.872Z,0
2019-04-11T20:45:01.918Z,0
2019-04-11T20:46:04.509Z,0
2019-04-11T20:47:06.540Z,0
2019-04-11T20:48:08.573Z,0
2019-04-11T20:49:10.612Z,0
2019-04-11T20:50:12.638Z,0
2019-04-11T20:51:14.667Z,0
2019-04-11T20:52:19.755Z,0
2019-04-11T20:53:21.826Z,0
2019-04-11T20:54:23.865Z,0
2019-04-11T20:55:25.894Z,0
2019-04-11T20:56:28.589Z,0
2019-04-11T20:57:30.614Z,0
2019-04-11T20:58:32.653Z,0
2019-04-11T20:59:35.264Z,0
2019-04-11T21:00:50.533Z,0
2019-04-11T21:01:58.342Z,0
2019-04-11T21:03:00.859Z,0
2019-04-11T21:04:04.733Z,0
2019-04-11T21:05:06.953Z,0
2019-04-11T21:06:08.970Z,0
2019-04-11T21:07:11.282Z,0
2019-04-11T21:08:13.308Z,0
2019-04-11T21:09:15.335Z,0
2019-04-11T21:10:18.062Z,0
2019-04-11T21:11:20.089Z,0
2019-04-11T21:12:22.792Z,0
2019-04-11T21:13:24.820Z,0
2019-04-11T21:14:26.856Z,0
2019-04-11T21:15:29.049Z,0
2019-04-11T21:16:31.082Z,0
2019-04-11T21:17:33.106Z,0
2019-04-11T21:18:35.146Z,0
2019-04-11T21:19:37.166Z,0
2019-04-11T21:20:39.526Z,0
2019-04-11T21:21:41.755Z,0
2019-04-11T21:22:43.803Z,0
2019-04-11T21:23:46.123Z,0
2019-04-11T21:24:48.149Z,0
2019-04-11T21:25:50.186Z,0
2019-04-11T21:26:52.190Z,0
2019-04-11T21:27:54.226Z,0
2019-04-11T21:29:01.459Z,0
2019-04-11T21:30:03.476Z,0
2019-04-11T21:31:05.510Z,0
2019-04-11T21:32:07.545Z,0
2019-04-11T21:33:09.574Z,0
2019-04-11T21:34:11.616Z,0
2019-04-11T21:35:13.923Z,0
2019-04-11T21:36:16.323Z,0
2019-04-11T21:37:18.351Z,0
2019-04-11T21:38:20.389Z,0
2019-04-11T21:39:22.432Z,0
2019-04-11T21:40:24.850Z,0
2019-04-11T21:41:27.270Z,0
2019-04-11T21:42:29.286Z,0
2019-04-11T21:43:31.393Z,0
2019-04-11T21:44:38.356Z,0
2019-04-11T21:45:40.670Z,0
2019-04-11T21:46:42.700Z,0
2019-04-11T21:47:44.743Z,0
2019-04-11T21:48:46.773Z,0
2019-04-11T21:49:48.803Z,0
2019-04-11T21:50:50.844Z,0
2019-04-11T21:51:53.257Z,0
2019-04-11T21:52:55.304Z,0
2019-04-11T21:53:57.725Z,0
2019-04-11T21:55:00.045Z,0
2019-04-11T21:56:02.098Z,0
2019-04-11T21:57:04.478Z,0
2019-04-11T21:58:06.508Z,0
2019-04-11T21:59:08.544Z,0
2019-04-11T22:00:10.564Z,0
2019-04-11T22:01:12.888Z,0
2019-04-11T22:02:15.328Z,0
2019-04-11T22:03:17.352Z,0
2019-04-11T22:04:19.381Z,0
2019-04-11T22:05:21.412Z,0
2019-04-11T22:06:23.436Z,0
2019-04-11T22:07:25.473Z,0
2019-04-11T22:08:34.349Z,0
2019-04-11T22:09:37.025Z,0
2019-04-11T22:10:40.317Z,0
2019-04-11T22:11:42.971Z,0
2019-04-11T22:12:44.986Z,0
2019-04-11T22:13:47.014Z,0
2019-04-11T22:14:49.041Z,0
2019-04-11T22:15:51.360Z,0
2019-04-11T22:16:54.966Z,0
2019-04-11T22:17:57.499Z,0
2019-04-11T22:18:59.529Z,0
2019-04-11T22:20:01.556Z,0
2019-04-11T22:21:03.601Z,0
2019-04-11T22:22:05.634Z,0
2019-04-11T22:23:07.671Z,0
2019-04-11T22:24:09.708Z,0
2019-04-11T22:25:12.018Z,0
2019-04-11T22:26:14.073Z,0
2019-04-11T22:27:16.103Z,0
2019-04-11T22:28:18.134Z,0
2019-04-11T22:29:25.873Z,0
2019-04-11T22:30:28.180Z,0
2019-04-11T22:31:30.213Z,0
2019-04-11T22:32:32.240Z,0
2019-04-11T22:33:34.294Z,0
2019-04-11T22:34:36.329Z,0
2019-04-11T22:35:38.356Z,0
2019-04-11T22:36:40.406Z,0
2019-04-11T22:37:42.437Z,0
2019-04-11T22:38:44.459Z,0
2019-04-11T22:39:46.484Z,0
2019-04-11T22:40:48.501Z,0
2019-04-11T22:41:50.538Z,0
2019-04-11T22:42:52.580Z,0
2019-04-11T22:43:54.891Z,0
2019-04-11T22:44:56.913Z,0